| time (UTC) | temp F | wind direction | speed knots | gust knots | rain 1hr in | rain 24hr in | rain mn in | humidity % | barometer mb |
| 20260507223517 | 54 | 291 | 0.9 | 5.2 | 0.00 | 0.00 | 0.00 | 50 | 1011.2 |
| 20260507223017 | 54 | 352 | 1.7 | 3.5 | 0.00 | 0.00 | 0.00 | 50 | 1011.2 |
| 20260507222521 | 55 | 35 | 2.6 | 5.2 | 0.00 | 0.00 | 0.00 | 50 | 1011.3 |
| 20260507222022 | 54 | 351 | 1.7 | 5.2 | 0.00 | 0.00 | 0.00 | 51 | 1011.3 |
| 20260507221519 | 55 | 323 | 1.7 | 6.1 | 0.00 | 0.00 | 0.00 | 50 | 1011.4 |
| 20260507221018 | 55 | 275 | 1.7 | 4.3 | 0.00 | 0.00 | 0.00 | 49 | 1011.4 |
| 20260507220519 | 55 | 357 | 1.7 | 6.1 | 0.00 | 0.00 | 0.00 | 49 | 1011.3 |
| 20260507220018 | 55 | 272 | 1.7 | 6.1 | 0.00 | 0.00 | 0.00 | 48 | 1011.3 |
| 20260507215518 | 55 | 293 | 1.7 | 5.2 | 0.00 | 0.00 | 0.00 | 50 | 1011.4 |
| 20260507215019 | 54 | 300 | 2.6 | 7.0 | 0.00 | 0.00 | 0.00 | 50 | 1011.4 |
| 20260507214540 | 54 | 290 | 3.5 | 6.1 | 0.00 | 0.00 | 0.00 | 49 | 1011.4 |
| 20260507214018 | 55 | 308 | 2.6 | 4.3 | 0.00 | 0.00 | 0.00 | 49 | 1011.4 |
| 20260507213521 | 55 | 303 | 2.6 | 7.0 | 0.00 | 0.00 | 0.00 | 49 | 1011.4 |
| 20260507213018 | 55 | 319 | 2.6 | 7.8 | 0.00 | 0.00 | 0.00 | 49 | 1011.4 |
| 20260507212521 | 55 | 305 | 1.7 | 3.5 | 0.00 | 0.00 | 0.00 | 49 | 1011.4 |
| 20260507212018 | 55 | 308 | 2.6 | 8.7 | 0.00 | 0.00 | 0.00 | 49 | 1011.4 |
| 20260507211518 | 54 | 293 | 1.7 | 4.3 | 0.00 | 0.00 | 0.00 | 50 | 1011.5 |
| 20260507211020 | 54 | 310 | 1.7 | 5.2 | 0.00 | 0.00 | 0.00 | 49 | 1011.7 |
| 20260507210519 | 55 | 319 | 2.6 | 7.8 | 0.00 | 0.00 | 0.00 | 50 | 1011.7 |
| 20260507210021 | 54 | 306 | 2.6 | 7.8 | 0.00 | 0.00 | 0.00 | 50 | 1011.8 |
| 20260507205519 | 54 | 327 | 1.7 | 6.1 | 0.00 | 0.00 | 0.00 | 50 | 1011.9 |
| 20260507205020 | 54 | 314 | 2.6 | 7.0 | 0.00 | 0.00 | 0.00 | 50 | 1012.0 |
| 20260507204519 | 55 | 300 | 2.6 | 7.0 | 0.00 | 0.00 | 0.00 | 49 | 1012.1 |
| 20260507204019 | 55 | 254 | 3.5 | 6.1 | 0.00 | 0.00 | 0.00 | 49 | 1012.2 |
| 20260507203520 | 55 | 328 | 2.6 | 9.6 | 0.00 | 0.00 | 0.00 | 49 | 1012.2 |
| 20260507203021 | 55 | 334 | 2.6 | 6.1 | 0.00 | 0.00 | 0.00 | 48 | 1012.3 |
| 20260507202519 | 54 | 269 | 1.7 | 4.3 | 0.00 | 0.00 | 0.00 | 49 | 1012.3 |
| 20260507202039 | 54 | 250 | 2.6 | 6.1 | 0.00 | 0.00 | 0.00 | 49 | 1012.3 |
| 20260507201521 | 54 | 308 | 3.5 | 9.6 | 0.00 | 0.00 | 0.00 | 50 | 1012.3 |
| 20260507201021 | 54 | 303 | 3.5 | 7.0 | 0.00 | 0.00 | 0.00 | 49 | 1012.4 |
| 20260507200517 | 54 | 266 | 2.6 | 7.8 | 0.00 | 0.00 | 0.00 | 49 | 1012.4 |
| 20260507200037 | 54 | 289 | 2.6 | 7.8 | 0.00 | 0.00 | 0.00 | 49 | 1012.5 |
| 20260507195518 | 53 | 323 | 2.6 | 10.4 | 0.00 | 0.00 | 0.00 | 49 | 1012.5 |
| 20260507195017 | 53 | 242 | 2.6 | 7.0 | 0.00 | 0.00 | 0.00 | 49 | 1012.6 |
| 20260507194518 | 54 | 286 | 3.5 | 7.8 | 0.00 | 0.00 | 0.00 | 49 | 1012.7 |
| 20260507194017 | 54 | 298 | 3.5 | 7.0 | 0.00 | 0.00 | 0.00 | 49 | 1012.7 |
| 20260507193518 | 55 | 281 | 3.5 | 7.8 | 0.00 | 0.00 | 0.00 | 49 | 1012.8 |
| 20260507193020 | 55 | 307 | 2.6 | 6.1 | 0.00 | 0.00 | 0.00 | 50 | 1012.8 |
| 20260507192517 | 55 | 310 | 2.6 | 7.0 | 0.00 | 0.00 | 0.00 | 48 | 1012.9 |
| 20260507192021 | 55 | 343 | 2.6 | 7.0 | 0.00 | 0.00 | 0.00 | 49 | 1012.9 |
| 20260507191518 | 55 | 318 | 2.6 | 5.2 | 0.00 | 0.00 | 0.00 | 50 | 1013.0 |
| 20260507191018 | 54 | 322 | 2.6 | 7.0 | 0.00 | 0.00 | 0.00 | 49 | 1013.0 |
| 20260507190519 | 54 | 293 | 2.6 | 7.0 | 0.00 | 0.00 | 0.00 | 50 | 1013.1 |
| 20260507190018 | 54 | 352 | 1.7 | 5.2 | 0.00 | 0.00 | 0.00 | 50 | 1013.1 |
| 20260507185521 | 54 | 204 | 2.6 | 6.1 | 0.00 | 0.00 | 0.00 | 50 | 1013.2 |
| 20260507185038 | 53 | 298 | 2.6 | 6.1 | 0.00 | 0.00 | 0.00 | 50 | 1013.1 |
| 20260507184520 | 53 | 6 | 3.5 | 7.8 | 0.00 | 0.00 | 0.00 | 50 | 1013.1 |
| 20260507184039 | 54 | 264 | 2.6 | 8.7 | 0.00 | 0.00 | 0.00 | 49 | 1013.2 |
| 20260507183518 | 53 | 268 | 1.7 | 5.2 | 0.00 | 0.00 | 0.00 | 50 | 1013.2 |
| 20260507183020 | 53 | 292 | 2.6 | 8.7 | 0.00 | 0.00 | 0.00 | 50 | 1013.2 |
| 20260507182519 | 53 | 167 | 2.6 | 6.1 | 0.00 | 0.00 | 0.00 | 49 | 1013.2 |
| 20260507182019 | 53 | 306 | 2.6 | 7.0 | 0.00 | 0.00 | 0.00 | 51 | 1013.2 |
| 20260507181518 | 52 | 314 | 2.6 | 7.0 | 0.00 | 0.00 | 0.00 | 51 | 1013.1 |
| 20260507181041 | 52 | 258 | 2.6 | 7.0 | 0.00 | 0.00 | 0.00 | 50 | 1013.2 |
| 20260507180519 | 52 | 262 | 3.5 | 7.8 | 0.00 | 0.00 | 0.00 | 51 | 1013.1 |
| 20260507180019 | 52 | 305 | 4.3 | 9.6 | 0.00 | 0.00 | 0.00 | 51 | 1013.2 |
| 20260507175519 | 52 | 310 | 3.5 | 7.8 | 0.00 | 0.00 | 0.00 | 51 | 1013.2 |
| 20260507175021 | 52 | 343 | 3.5 | 6.1 | 0.00 | 0.00 | 0.00 | 51 | 1013.3 |
| 20260507174519 | 52 | 281 | 3.5 | 7.0 | 0.00 | 0.00 | 0.00 | 50 | 1013.3 |
| 20260507174019 | 51 | 299 | 3.5 | 9.6 | 0.00 | 0.00 | 0.00 | 52 | 1013.4 |
| 20260507173521 | 52 | 293 | 4.3 | 7.8 | 0.00 | 0.00 | 0.00 | 50 | 1013.4 |
| 20260507173019 | 52 | 306 | 3.5 | 9.6 | 0.00 | 0.00 | 0.00 | 50 | 1013.5 |
| 20260507172540 | 52 | 284 | 2.6 | 7.0 | 0.00 | 0.00 | 0.00 | 50 | 1013.6 |
| 20260507172019 | 52 | 317 | 2.6 | 8.7 | 0.00 | 0.00 | 0.00 | 50 | 1013.6 |
| 20260507171521 | 52 | 275 | 2.6 | 7.8 | 0.00 | 0.00 | 0.00 | 51 | 1013.8 |
| 20260507171020 | 52 | 312 | 3.5 | 8.7 | 0.00 | 0.00 | 0.00 | 50 | 1013.8 |
| 20260507170520 | 52 | 296 | 2.6 | 6.1 | 0.00 | 0.00 | 0.00 | 51 | 1013.9 |
| 20260507165521 | 52 | 242 | 3.5 | 8.7 | 0.00 | 0.00 | 0.00 | 51 | 1014.1 |
| 20260507165022 | 52 | 195 | 2.6 | 6.1 | 0.00 | 0.00 | 0.00 | 52 | 1014.1 |
| 20260507164520 | 52 | 281 | 3.5 | 7.8 | 0.00 | 0.00 | 0.00 | 53 | 1014.3 |
| 20260507164022 | 51 | 325 | 2.6 | 6.1 | 0.00 | 0.00 | 0.00 | 53 | 1014.4 |
| 20260507163520 | 52 | 244 | 3.5 | 10.4 | 0.00 | 0.00 | 0.00 | 51 | 1014.5 |
| 20260507163020 | 52 | 224 | 2.6 | 7.0 | 0.00 | 0.00 | 0.00 | 52 | 1014.4 |
| 20260507162521 | 52 | 220 | 2.6 | 9.6 | 0.00 | 0.00 | 0.00 | 52 | 1014.4 |
| 20260507162042 | 52 | 215 | 2.6 | 7.0 | 0.00 | 0.00 | 0.00 | 53 | 1014.5 |
| 20260507161520 | 51 | 285 | 3.5 | 10.4 | 0.00 | 0.00 | 0.00 | 53 | 1014.6 |
| 20260507161020 | 51 | 286 | 3.5 | 7.0 | 0.00 | 0.00 | 0.00 | 54 | 1014.6 |
| 20260507160540 | 51 | 296 | 3.5 | 7.8 | 0.00 | 0.00 | 0.00 | 54 | 1014.5 |
| 20260507155520 | 51 | 304 | 2.6 | 7.0 | 0.00 | 0.00 | 0.00 | 55 | 1014.5 |
| 20260507155018 | 51 | 322 | 2.6 | 8.7 | 0.00 | 0.00 | 0.00 | 55 | 1014.5 |
| 20260507154519 | 51 | 271 | 3.5 | 9.6 | 0.00 | 0.00 | 0.00 | 55 | 1014.5 |
| 20260507154018 | 51 | 239 | 2.6 | 7.8 | 0.00 | 0.00 | 0.00 | 55 | 1014.5 |
| 20260507153519 | 51 | 267 | 3.5 | 13.0 | 0.00 | 0.00 | 0.00 | 55 | 1014.5 |
| 20260507153018 | 50 | 245 | 2.6 | 7.0 | 0.00 | 0.00 | 0.00 | 55 | 1014.4 |
| 20260507152520 | 50 | 292 | 2.6 | 7.8 | 0.00 | 0.00 | 0.00 | 55 | 1014.4 |
| 20260507152018 | 51 | 287 | 3.5 | 7.0 | 0.00 | 0.00 | 0.00 | 54 | 1014.3 |
| 20260507151521 | 50 | 207 | 2.6 | 6.1 | 0.00 | 0.00 | 0.00 | 56 | 1014.3 |
| 20260507151021 | 50 | 272 | 2.6 | 7.0 | 0.00 | 0.00 | 0.00 | 56 | 1014.2 |
| 20260507150523 | 50 | 246 | 3.5 | 7.0 | 0.00 | 0.00 | 0.00 | 56 | 1014.2 |
| 20260507150022 | 50 | 228 | 2.6 | 8.7 | 0.00 | 0.00 | 0.00 | 56 | 1014.2 |
| 20260507145519 | 50 | 280 | 3.5 | 7.0 | 0.00 | 0.00 | 0.00 | 55 | 1014.2 |
| 20260507145020 | 50 | 165 | 2.6 | 7.8 | 0.00 | 0.00 | 0.00 | 56 | 1014.3 |
| 20260507144519 | 49 | 276 | 2.6 | 7.8 | 0.00 | 0.00 | 0.00 | 56 | 1014.3 |
| 20260507144020 | 49 | 201 | 2.6 | 5.2 | 0.00 | 0.00 | 0.00 | 56 | 1014.3 |
| 20260507143519 | 50 | 251 | 3.5 | 7.0 | 0.00 | 0.00 | 0.00 | 56 | 1014.4 |
| 20260507143019 | 50 | 233 | 2.6 | 5.2 | 0.00 | 0.00 | 0.00 | 56 | 1014.4 |
| 20260507142519 | 50 | 204 | 2.6 | 9.6 | 0.00 | 0.00 | 0.00 | 57 | 1014.5 |
| 20260507142021 | 49 | 234 | 1.7 | 7.0 | 0.00 | 0.00 | 0.00 | 58 | 1014.5 |
| 20260507141519 | 48 | 245 | 1.7 | 4.3 | 0.00 | 0.00 | 0.00 | 59 | 1014.5 |
| 20260507141019 | 47 | 261 | 2.6 | 5.2 | 0.00 | 0.00 | 0.00 | 61 | 1014.6 |
| 20260507140520 | 47 | 291 | 2.6 | 7.0 | 0.00 | 0.00 | 0.00 | 61 | 1014.6 |
| 20260507140021 | 47 | 315 | 3.5 | 9.6 | 0.00 | 0.00 | 0.00 | 61 | 1014.6 |
| 20260507135539 | 47 | 288 | 2.6 | 7.8 | 0.00 | 0.00 | 0.00 | 61 | 1014.6 |
| 20260507135020 | 48 | 286 | 2.6 | 7.0 | 0.00 | 0.00 | 0.00 | 61 | 1014.6 |
| 20260507134521 | 48 | 259 | 2.6 | 5.2 | 0.00 | 0.00 | 0.00 | 62 | 1014.5 |
| 20260507134019 | 47 | 293 | 1.7 | 5.2 | 0.00 | 0.00 | 0.00 | 64 | 1014.4 |
| 20260507133520 | 47 | 273 | 1.7 | 5.2 | 0.00 | 0.00 | 0.00 | 64 | 1014.4 |
| 20260507133100 | 46 | 269 | 1.7 | 4.3 | 0.00 | 0.00 | 0.00 | 65 | 1014.4 |
| 20260507132541 | 46 | 251 | 2.6 | 6.1 | 0.00 | 0.00 | 0.00 | 66 | 1014.4 |
| 20260507132020 | 46 | 218 | 2.6 | 5.2 | 0.00 | 0.00 | 0.00 | 67 | 1014.4 |
| 20260507131540 | 46 | 290 | 2.6 | 7.8 | 0.00 | 0.00 | 0.00 | 69 | 1014.3 |
| 20260507131020 | 46 | 253 | 1.7 | 6.1 | 0.00 | 0.00 | 0.00 | 69 | 1014.3 |
| 20260507130521 | 46 | 248 | 1.7 | 4.3 | 0.00 | 0.00 | 0.00 | 70 | 1014.2 |
| 20260507130020 | 46 | 223 | 1.7 | 6.1 | 0.00 | 0.00 | 0.00 | 71 | 1014.3 |
| 20260507125520 | 46 | 263 | 1.7 | 6.1 | 0.00 | 0.00 | 0.00 | 73 | 1014.2 |
| 20260507125022 | 45 | 214 | 1.7 | 4.3 | 0.00 | 0.00 | 0.00 | 73 | 1014.2 |
| 20260507124521 | 45 | 274 | 1.7 | 5.2 | 0.00 | 0.00 | 0.00 | 74 | 1014.2 |
| 20260507124021 | 45 | 252 | 1.7 | 5.2 | 0.00 | 0.00 | 0.00 | 74 | 1014.2 |
| 20260507123520 | 44 | 255 | 1.7 | 4.3 | 0.00 | 0.00 | 0.00 | 75 | 1014.2 |
| 20260507123022 | 44 | 285 | 1.7 | 4.3 | 0.00 | 0.00 | 0.00 | 76 | 1014.2 |
| 20260507122520 | 44 | 228 | 1.7 | 5.2 | 0.00 | 0.00 | 0.00 | 76 | 1014.1 |
| 20260507122101 | 43 | 294 | 2.6 | 8.7 | 0.00 | 0.00 | 0.00 | 78 | 1014.1 |
| 20260507121521 | 43 | 227 | 1.7 | 5.2 | 0.00 | 0.00 | 0.00 | 79 | 1014.1 |
| 20260507121022 | 43 | 243 | 1.7 | 6.1 | 0.00 | 0.00 | 0.00 | 79 | 1014.1 |
| 20260507120541 | 43 | 209 | 0.9 | 3.5 | 0.00 | 0.00 | 0.00 | 81 | 1014.1 |
| 20260507120019 | 42 | 247 | 1.7 | 3.5 | 0.00 | 0.00 | 0.00 | 81 | 1014.1 |
| 20260507115520 | 42 | 214 | 0.9 | 2.6 | 0.00 | 0.00 | 0.00 | 82 | 1014.1 |
| 20260507115020 | 42 | 253 | 0.9 | 4.3 | 0.00 | 0.00 | 0.00 | 82 | 1014.0 |
| 20260507114518 | 41 | 273 | 1.7 | 3.5 | 0.00 | 0.00 | 0.00 | 83 | 1013.9 |
| 20260507114018 | 41 | 222 | 0.9 | 1.7 | 0.00 | 0.00 | 0.00 | 84 | 1013.9 |
| 20260507113520 | 40 | 221 | 0.9 | 1.7 | 0.00 | 0.00 | 0.00 | 85 | 1013.8 |
| 20260507113018 | 39 | 244 | 0.9 | 2.6 | 0.00 | 0.00 | 0.00 | 87 | 1013.7 |
| 20260507112522 | 39 | 232 | 0.9 | 1.7 | 0.00 | 0.00 | 0.00 | 87 | 1013.7 |
| 20260507112021 | 37 | 229 | 0.9 | 1.7 | 0.00 | 0.00 | 0.00 | 89 | 1013.6 |
| 20260507111523 | 37 | 238 | 0.9 | 0.9 | 0.00 | 0.00 | 0.00 | 89 | 1013.6 |
| 20260507111038 | 36 | 205 | 0.9 | 1.7 | 0.00 | 0.00 | 0.00 | 89 | 1013.5 |
| 20260507110518 | 35 | 202 | 0.9 | 1.7 | 0.00 | 0.00 | 0.00 | 90 | 1013.4 |
| 20260507110042 | 34 | 256 | 0.0 | 0.9 | 0.00 | 0.00 | 0.00 | 89 | 1013.4 |
| 20260507105519 | 34 | 250 | 0.9 | 1.7 | 0.00 | 0.00 | 0.00 | 89 | 1013.3 |
| 20260507105020 | 34 | 213 | 0.9 | 1.7 | 0.00 | 0.00 | 0.00 | 89 | 1013.3 |
| 20260507104522 | 34 | 36 | 0.9 | 1.7 | 0.00 | 0.00 | 0.00 | 88 | 1013.3 |
| 20260507104021 | 34 | 295 | 0.0 | 1.7 | 0.00 | 0.00 | 0.00 | 88 | 1013.4 |
| 20260507103524 | 34 | 303 | 0.0 | 0.9 | 0.00 | 0.00 | 0.00 | 88 | 1013.3 |
| 20260507103019 | 34 | 289 | 0.0 | 0.9 | 0.00 | 0.00 | 0.00 | 88 | 1013.3 |
| 20260507102519 | 34 | 292 | 0.0 | 0.9 | 0.00 | 0.00 | 0.00 | 88 | 1013.3 |
| 20260507102019 | 34 | 252 | 0.0 | 0.9 | 0.00 | 0.00 | 0.00 | 88 | 1013.3 |
| 20260507101520 | 35 | 228 | 0.0 | 1.7 | 0.00 | 0.00 | 0.00 | 87 | 1013.3 |
| 20260507101020 | 35 | 223 | 0.0 | 1.7 | 0.00 | 0.00 | 0.00 | 87 | 1013.3 |
| 20260507100519 | 35 | 286 | 0.0 | 0.9 | 0.00 | 0.00 | 0.00 | 87 | 1013.3 |
| 20260507100039 | 35 | 230 | 0.9 | 0.9 | 0.00 | 0.00 | 0.00 | 86 | 1013.3 |
| 20260507095521 | 35 | 221 | 0.9 | 1.7 | 0.00 | 0.00 | 0.00 | 86 | 1013.2 |
| 20260507095020 | 35 | 220 | 0.0 | 0.9 | 0.00 | 0.00 | 0.00 | 86 | 1013.2 |
| 20260507094519 | 36 | 230 | 0.9 | 0.9 | 0.00 | 0.00 | 0.00 | 85 | 1013.2 |
| 20260507094020 | 36 | 195 | 0.0 | 1.7 | 0.00 | 0.00 | 0.00 | 85 | 1013.3 |
| 20260507093559 | 36 | 208 | 0.0 | 0.9 | 0.00 | 0.00 | 0.00 | 85 | 1013.2 |
| 20260507093040 | 36 | 225 | 0.0 | 1.7 | 0.00 | 0.00 | 0.00 | 84 | 1013.2 |
| 20260507092540 | 37 | 223 | 0.9 | 1.7 | 0.00 | 0.00 | 0.00 | 84 | 1013.2 |
| 20260507092022 | 37 | 211 | 0.9 | 0.9 | 0.00 | 0.00 | 0.00 | 83 | 1013.2 |
| 20260507091527 | 37 | 213 | 0.9 | 0.9 | 0.00 | 0.00 | 0.00 | 83 | 1013.3 |
| 20260507090520 | 38 | 207 | 0.9 | 1.7 | 0.00 | 0.00 | 0.00 | 83 | 1013.4 |
| 20260507085517 | 38 | 230 | 0.9 | 1.7 | 0.00 | 0.00 | 0.00 | 82 | 1013.4 |
| 20260507085018 | 38 | 253 | 0.9 | 1.7 | 0.00 | 0.00 | 0.00 | 81 | 1013.4 |
| 20260507084519 | 38 | 244 | 0.9 | 1.7 | 0.00 | 0.00 | 0.00 | 80 | 1013.4 |
| 20260507084018 | 38 | 257 | 0.9 | 1.7 | 0.00 | 0.00 | 0.00 | 80 | 1013.3 |
| 20260507083541 | 39 | 260 | 0.9 | 1.7 | 0.00 | 0.00 | 0.00 | 79 | 1013.4 |
| 20260507083021 | 39 | 264 | 0.9 | 1.7 | 0.00 | 0.00 | 0.00 | 78 | 1013.4 |
| 20260507082522 | 39 | 270 | 0.9 | 1.7 | 0.00 | 0.00 | 0.00 | 78 | 1013.4 |
| 20260507082021 | 39 | 279 | 0.9 | 1.7 | 0.00 | 0.00 | 0.00 | 77 | 1013.4 |
| 20260507081521 | 39 | 269 | 0.9 | 1.7 | 0.00 | 0.00 | 0.00 | 77 | 1013.4 |
| 20260507081021 | 39 | 269 | 0.9 | 1.7 | 0.00 | 0.00 | 0.00 | 76 | 1013.4 |
| 20260507080522 | 39 | 277 | 0.9 | 1.7 | 0.00 | 0.00 | 0.00 | 76 | 1013.5 |
| 20260507080018 | 40 | 262 | 0.9 | 1.7 | 0.00 | 0.00 | 0.00 | 75 | 1013.5 |
| 20260507075519 | 40 | 266 | 0.9 | 1.7 | 0.00 | 0.00 | 0.00 | 75 | 1013.5 |
| 20260507075021 | 40 | 256 | 0.9 | 1.7 | 0.00 | 0.00 | 0.00 | 75 | 1013.6 |
| 20260507074519 | 41 | 261 | 0.9 | 2.6 | 0.00 | 0.00 | 0.00 | 74 | 1013.6 |
| 20260507074019 | 41 | 236 | 0.9 | 1.7 | 0.00 | 0.00 | 0.00 | 74 | 1013.6 |
| 20260507073539 | 41 | 253 | 0.9 | 2.6 | 0.00 | 0.00 | 0.00 | 73 | 1013.5 |
| 20260507073021 | 42 | 247 | 0.9 | 2.6 | 0.00 | 0.00 | 0.00 | 73 | 1013.5 |
| 20260507072522 | 42 | 291 | 1.7 | 2.6 | 0.00 | 0.00 | 0.00 | 73 | 1013.5 |
| 20260507072022 | 42 | 274 | 0.9 | 3.5 | 0.00 | 0.00 | 0.00 | 72 | 1013.5 |
| 20260507071559 | 42 | 295 | 1.7 | 3.5 | 0.00 | 0.00 | 0.00 | 72 | 1013.5 |
| 20260507071021 | 42 | 305 | 0.9 | 4.3 | 0.00 | 0.00 | 0.00 | 73 | 1013.4 |
| 20260507070519 | 42 | 300 | 1.7 | 5.2 | 0.00 | 0.00 | 0.00 | 73 | 1013.4 |
| 20260507070019 | 42 | 289 | 0.9 | 3.5 | 0.00 | 0.00 | 0.00 | 73 | 1013.4 |
| 20260507065541 | 42 | 0.0 | 0.0 | 0.00 | 0.00 | 0.00 | 73 | 1013.4 | |
| 20260507065019 | 42 | 306 | 1.7 | 5.2 | 0.00 | 0.00 | 0.00 | 74 | 1013.5 |
| 20260507064520 | 42 | 298 | 1.7 | 3.5 | 0.00 | 0.00 | 0.00 | 75 | 1013.6 |
| 20260507064041 | 42 | 300 | 1.7 | 3.5 | 0.00 | 0.00 | 0.00 | 76 | 1013.6 |
| 20260507063524 | 42 | 290 | 0.9 | 3.5 | 0.00 | 0.00 | 0.00 | 77 | 1013.6 |
| 20260507063042 | 42 | 266 | 0.9 | 1.7 | 0.00 | 0.00 | 0.00 | 78 | 1013.6 |
| 20260507062521 | 42 | 268 | 0.9 | 2.6 | 0.00 | 0.00 | 0.00 | 78 | 1013.5 |
| 20260507062021 | 42 | 287 | 0.9 | 2.6 | 0.00 | 0.00 | 0.00 | 79 | 1013.5 |
| 20260507061520 | 42 | 261 | 0.9 | 2.6 | 0.00 | 0.00 | 0.00 | 79 | 1013.5 |
| 20260507061020 | 42 | 0.0 | 0.0 | 0.00 | 0.00 | 0.00 | 80 | 1013.5 | |
| 20260507060519 | 42 | 0.0 | 0.0 | 0.00 | 0.00 | 0.00 | 78 | 1013.5 | |
| 20260507060020 | 42 | 275 | 0.9 | 1.7 | 0.00 | 0.00 | 0.00 | 79 | 1013.5 |
| 20260507055539 | 41 | 240 | 0.9 | 1.7 | 0.00 | 0.00 | 0.00 | 79 | 1013.5 |
| 20260507055019 | 42 | 284 | 0.0 | 0.9 | 0.00 | 0.00 | 0.00 | 78 | 1013.5 |
| 20260507054520 | 42 | 279 | 0.0 | 0.9 | 0.00 | 0.00 | 0.00 | 78 | 1013.5 |
| 20260507054019 | 42 | 263 | 0.0 | 0.9 | 0.00 | 0.00 | 0.00 | 78 | 1013.6 |
| 20260507053524 | 42 | 288 | 0.0 | 0.9 | 0.00 | 0.00 | 0.00 | 78 | 1013.5 |
| 20260507053023 | 42 | 275 | 0.9 | 0.9 | 0.00 | 0.00 | 0.00 | 77 | 1013.6 |
| 20260507052540 | 41 | 263 | 0.9 | 0.9 | 0.00 | 0.00 | 0.00 | 76 | 1013.6 |
| 20260507052020 | 41 | 265 | 0.0 | 0.9 | 0.00 | 0.00 | 0.00 | 76 | 1013.7 |
| 20260507051600 | 42 | 349 | 0.0 | 0.9 | 0.00 | 0.00 | 0.00 | 76 | 1013.7 |
| 20260507051022 | 42 | 310 | 0.9 | 0.9 | 0.00 | 0.00 | 0.00 | 76 | 1013.7 |
| 20260507050521 | 42 | 290 | 0.9 | 1.7 | 0.00 | 0.00 | 0.00 | 76 | 1013.7 |
| 20260507050018 | 42 | 279 | 0.9 | 0.9 | 0.00 | 0.00 | 0.00 | 76 | 1013.7 |
| 20260507045541 | 42 | 256 | 0.9 | 2.6 | 0.00 | 0.00 | 0.00 | 75 | 1013.7 |
| 20260507045023 | 41 | 266 | 0.9 | 1.7 | 0.00 | 0.00 | 0.00 | 74 | 1013.8 |
| 20260507044521 | 42 | 257 | 0.9 | 0.9 | 0.00 | 0.00 | 0.00 | 73 | 1013.7 |
| 20260507044020 | 42 | 277 | 0.9 | 1.7 | 0.00 | 0.00 | 0.00 | 73 | 1013.8 |
| 20260507043522 | 42 | 235 | 0.9 | 1.7 | 0.00 | 0.00 | 0.00 | 73 | 1013.8 |
| 20260507043025 | 42 | 253 | 0.9 | 1.7 | 0.00 | 0.00 | 0.00 | 72 | 1013.8 |
| 20260507042521 | 42 | 271 | 0.0 | 0.9 | 0.00 | 0.00 | 0.00 | 71 | 1013.8 |
| 20260507042018 | 42 | 275 | 0.0 | 0.9 | 0.00 | 0.00 | 0.00 | 71 | 1013.8 |
| 20260507041521 | 42 | 260 | 0.9 | 1.7 | 0.00 | 0.00 | 0.00 | 71 | 1013.8 |
| 20260507041038 | 42 | 245 | 0.9 | 1.7 | 0.00 | 0.00 | 0.00 | 70 | 1013.8 |
| 20260507040521 | 43 | 252 | 0.9 | 1.7 | 0.00 | 0.00 | 0.00 | 70 | 1013.9 |
| 20260507040021 | 43 | 335 | 0.9 | 1.7 | 0.00 | 0.00 | 0.00 | 70 | 1013.9 |
| 20260507035523 | 0 | 277 | 0.0 | 0.0 | 0.00 | 0.00 | 0.00 | ||
| 20260507035021 | 44 | 251 | 0.0 | 1.7 | 0.00 | 0.00 | 0.00 | 68 | 1013.8 |
| 20260507034519 | 44 | 258 | 0.9 | 1.7 | 0.00 | 0.00 | 0.00 | 68 | 1013.8 |
| 20260507034020 | 44 | 238 | 0.9 | 0.9 | 0.00 | 0.00 | 0.00 | 68 | 1013.8 |
| 20260507033518 | 45 | 241 | 0.9 | 0.9 | 0.00 | 0.00 | 0.00 | 67 | 1013.8 |
| 20260507033018 | 45 | 207 | 0.0 | 0.9 | 0.00 | 0.00 | 0.00 | 67 | 1013.8 |
| 20260507032521 | 45 | 230 | 0.0 | 0.9 | 0.00 | 0.00 | 0.00 | 67 | 1013.8 |
| 20260507032023 | 45 | 207 | 0.0 | 0.9 | 0.00 | 0.00 | 0.00 | 67 | 1013.8 |
| 20260507031522 | 45 | 207 | 0.0 | 0.9 | 0.00 | 0.00 | 0.00 | 67 | 1013.8 |
| 20260507031019 | 46 | 185 | 0.0 | 0.9 | 0.00 | 0.00 | 0.00 | 67 | 1013.8 |
| 20260507030521 | 46 | 195 | 0.9 | 1.7 | 0.00 | 0.00 | 0.00 | 67 | 1013.9 |
| 20260507030019 | 46 | 193 | 0.9 | 1.7 | 0.00 | 0.00 | 0.00 | 66 | 1013.9 |
| 20260507025519 | 46 | 195 | 0.9 | 1.7 | 0.00 | 0.00 | 0.00 | 66 | 1013.9 |
| 20260507025019 | 46 | 192 | 0.9 | 1.7 | 0.00 | 0.00 | 0.00 | 65 | 1013.9 |
| 20260507024526 | 46 | 206 | 0.9 | 1.7 | 0.00 | 0.00 | 0.00 | 65 | 1013.9 |
| 20260507024026 | 46 | 210 | 0.9 | 1.7 | 0.00 | 0.00 | 0.00 | 65 | 1013.9 |
| 20260507023519 | 46 | 218 | 0.9 | 1.7 | 0.00 | 0.00 | 0.00 | 64 | 1013.8 |
| 20260507023021 | 46 | 246 | 0.9 | 1.7 | 0.00 | 0.00 | 0.00 | 64 | 1013.8 |
| 20260507022543 | 46 | 221 | 0.0 | 1.7 | 0.00 | 0.00 | 0.00 | 63 | 1013.8 |
| 20260507022022 | 47 | 223 | 0.0 | 1.7 | 0.00 | 0.00 | 0.00 | 62 | 1013.8 |
| 20260507021522 | 47 | 223 | 0.0 | 1.7 | 0.00 | 0.00 | 0.00 | 62 | 1013.7 |
| 20260507021021 | 47 | 258 | 0.9 | 1.7 | 0.00 | 0.00 | 0.00 | 61 | 1013.7 |
| 20260507020540 | 47 | 301 | 0.0 | 0.9 | 0.00 | 0.00 | 0.00 | 61 | 1013.6 |
| 20260507020020 | 47 | 257 | 0.9 | 1.7 | 0.00 | 0.00 | 0.00 | 61 | 1013.5 |
| 20260507015521 | 47 | 187 | 0.0 | 1.7 | 0.00 | 0.00 | 0.00 | 60 | 1013.5 |
| 20260507015020 | 47 | 257 | 0.9 | 1.7 | 0.00 | 0.00 | 0.00 | 60 | 1013.6 |
| 20260507014540 | 47 | 248 | 0.9 | 1.7 | 0.00 | 0.00 | 0.00 | 60 | 1013.5 |
| 20260507014020 | 47 | 277 | 0.9 | 1.7 | 0.00 | 0.00 | 0.00 | 60 | 1013.5 |
| 20260507013521 | 48 | 184 | 0.9 | 1.7 | 0.00 | 0.00 | 0.00 | 59 | 1013.5 |
| 20260507013020 | 48 | 170 | 0.9 | 1.7 | 0.00 | 0.00 | 0.00 | 59 | 1013.5 |
| 20260507012537 | 48 | 305 | 0.0 | 1.7 | 0.00 | 0.00 | 0.00 | 58 | 1013.5 |
| 20260507012039 | 48 | 298 | 0.0 | 1.7 | 0.00 | 0.00 | 0.00 | 58 | 1013.4 |
| 20260507011549 | 48 | 48 | 0.9 | 1.7 | 0.00 | 0.00 | 0.00 | 58 | 1013.4 |
| 20260507011030 | 48 | 196 | 0.0 | 0.9 | 0.00 | 0.00 | 0.00 | 57 | 1013.5 |
| 20260507010517 | 49 | 311 | 0.0 | 0.9 | 0.00 | 0.00 | 0.00 | 56 | 1013.5 |
| 20260507010019 | 49 | 284 | 0.9 | 1.7 | 0.00 | 0.00 | 0.00 | 56 | 1013.5 |
| 20260507005521 | 49 | 322 | 0.9 | 1.7 | 0.00 | 0.00 | 0.00 | 55 | 1013.4 |
| 20260507005021 | 49 | 350 | 0.9 | 1.7 | 0.00 | 0.00 | 0.00 | 55 | 1013.4 |
| 20260507004523 | 49 | 322 | 0.9 | 1.7 | 0.00 | 0.00 | 0.00 | 54 | 1013.4 |
| 20260507004021 | 50 | 333 | 0.9 | 2.6 | 0.00 | 0.00 | 0.00 | 54 | 1013.4 |
| 20260507003521 | 50 | 348 | 0.9 | 1.7 | 0.00 | 0.00 | 0.00 | 54 | 1013.3 |
| 20260507003021 | 50 | 311 | 0.9 | 2.6 | 0.00 | 0.00 | 0.00 | 54 | 1013.2 |
| 20260507002520 | 50 | 282 | 0.9 | 1.7 | 0.00 | 0.00 | 0.00 | 54 | 1013.2 |
| 20260507002040 | 50 | 268 | 0.9 | 3.5 | 0.00 | 0.00 | 0.00 | 53 | 1013.2 |
| 20260507001519 | 50 | 312 | 1.7 | 4.3 | 0.00 | 0.00 | 0.00 | 52 | 1013.0 |
| 20260507001040 | 51 | 318 | 1.7 | 4.3 | 0.00 | 0.00 | 0.00 | 52 | 1013.0 |
| 20260507000539 | 51 | 315 | 1.7 | 4.3 | 0.00 | 0.00 | 0.00 | 52 | 1013.0 |
| 20260507000019 | 51 | 217 | 1.7 | 5.2 | 0.00 | 0.00 | 0.00 | 52 | 1013.1 |
| 20260506235519 | 51 | 298 | 1.7 | 4.3 | 0.00 | 0.00 | 0.00 | 51 | 1013.0 |
| 20260506235024 | 51 | 267 | 1.7 | 6.1 | 0.00 | 0.00 | 0.00 | 52 | 1013.0 |
| 20260506234519 | 51 | 292 | 1.7 | 4.3 | 0.00 | 0.00 | 0.00 | 52 | 1013.0 |
| 20260506234019 | 51 | 262 | 1.7 | 3.5 | 0.00 | 0.00 | 0.00 | 52 | 1013.0 |
| 20260506233520 | 52 | 249 | 1.7 | 2.6 | 0.00 | 0.00 | 0.00 | 52 | 1013.1 |
| 20260506233016 | 52 | 321 | 0.9 | 1.7 | 0.00 | 0.00 | 0.00 | 51 | 1012.9 |
| 20260506232519 | 52 | 13 | 1.7 | 4.3 | 0.00 | 0.00 | 0.00 | 51 | 1013.0 |
| 20260506232019 | 52 | 284 | 1.7 | 3.5 | 0.00 | 0.00 | 0.00 | 50 | 1013.0 |
| 20260506231521 | 52 | 323 | 1.7 | 3.5 | 0.00 | 0.00 | 0.00 | 50 | 1013.0 |
| 20260506231019 | 52 | 300 | 1.7 | 4.3 | 0.00 | 0.00 | 0.00 | 50 | 1012.9 |
| 20260506230519 | 53 | 279 | 1.7 | 3.5 | 0.00 | 0.00 | 0.00 | 49 | 1012.9 |
| 20260506230021 | 54 | 328 | 1.7 | 6.1 | 0.00 | 0.00 | 0.00 | 48 | 1012.9 |
| 20260506225519 | 55 | 315 | 2.6 | 6.1 | 0.00 | 0.00 | 0.00 | 47 | 1013.0 |
| 20260506225039 | 55 | 294 | 1.7 | 3.5 | 0.00 | 0.00 | 0.00 | 46 | 1012.9 |
| 20260506224517 | 55 | 277 | 2.6 | 7.0 | 0.00 | 0.00 | 0.00 | 46 | 1012.9 |
| 20260506224018 | 55 | 273 | 1.7 | 5.2 | 0.00 | 0.00 | 0.00 | 48 | 1012.9 |